F/v_l'omerta — FHXG — position and weather

sailwx.info

Track history (hours):
 
Tides and Currents Weather Stations Pressure Air Temp Water Temp Dewpoint Dewpoint Depression Visibility Wind Speed Wind Dir Waves Ship Positions

F/v_l'omerta

Last reported at 2018-Feb-23 22:59 UTC. Time now 2018-Feb-24 00:51 UTC.
Position N 46°30' W 001°47'.

Length 18 m.

Type: Fishing. MMSI: 227903000.

Date/timePositionNaut miles runAvg speedWind from/ knotsBaromVisibWave heightAir tempDewpointWater temp
2018-Feb-23 22:59N 46°30' W 001°47'0 0.0
2018-Feb-23 22:30N 46°30' W 001°47'0 0.0
2018-Feb-23 22:00N 46°30' W 001°47'0 0.0
2018-Feb-23 21:31N 46°30' W 001°47'0 0.0
2018-Feb-23 21:01N 46°30' W 001°47'0 0.0
2018-Feb-23 20:30N 46°30' W 001°47'0 0.0
2018-Feb-23 20:00N 46°30' W 001°47'0 0.0
2018-Feb-23 19:29N 46°30' W 001°47'0 0.0
2018-Feb-23 19:00N 46°30' W 001°47'0 0.0
2018-Feb-23 18:30N 46°30' W 001°47'0 0.0
2018-Feb-23 18:01N 46°30' W 001°47'0 0.0
2018-Feb-23 17:30N 46°30' W 001°47'0 0.0
2018-Feb-23 17:00N 46°30' W 001°47'0 0.0
2018-Feb-23 16:29N 46°30' W 001°47'0 0.0
2018-Feb-23 16:00N 46°30' W 001°47'0 0.0
2018-Feb-23 15:30N 46°30' W 001°47'0 0.0
2018-Feb-23 15:00N 46°30' W 001°47'0 0.0
2018-Feb-23 14:30N 46°30' W 001°47'0 0.0
2018-Feb-23 14:00N 46°30' W 001°47'0 0.0
2018-Feb-23 13:30N 46°30' W 001°47'0 0.0
2018-Feb-23 13:00N 46°30' W 001°47'0 0.0
2018-Feb-23 12:30N 46°30' W 001°47'0 0.0
2018-Feb-23 12:00N 46°30' W 001°47'0 0.0
2018-Feb-23 11:30N 46°30' W 001°47'0 0.0
2018-Feb-23 11:00N 46°30' W 001°47'0 0.0
2018-Feb-23 10:30N 46°30' W 001°47'0 0.0
2018-Feb-23 10:00N 46°30' W 001°47'0 0.0
2018-Feb-23 09:30N 46°30' W 001°47'0 0.0
2018-Feb-23 09:00N 46°30' W 001°47'0 0.0
2018-Feb-23 08:30N 46°30' W 001°47'0 0.0
2018-Feb-23 08:00N 46°30' W 001°47'0 0.0
2018-Feb-23 07:30N 46°30' W 001°47'0 0.0
2018-Feb-23 07:00N 46°30' W 001°47'0 0.0
2018-Feb-23 06:30N 46°30' W 001°47'0 0.0
2018-Feb-23 06:00N 46°30' W 001°47'0 0.0
2018-Feb-23 05:30N 46°30' W 001°47'0 0.0
2018-Feb-23 05:00N 46°30' W 001°47'0 0.0
2018-Feb-23 04:30N 46°30' W 001°47'0 0.0
2018-Feb-23 04:00N 46°30' W 001°47'0 0.0
2018-Feb-23 03:30N 46°30' W 001°47'0 0.0
2018-Feb-23 03:00N 46°30' W 001°47'0 0.0
2018-Feb-23 02:30N 46°30' W 001°47'0 0.0
2018-Feb-23 02:00N 46°30' W 001°47'0 0.0
2018-Feb-23 01:30N 46°30' W 001°47'0 0.0
2018-Feb-23 01:00N 46°30' W 001°47'0 0.0
2018-Feb-23 00:29N 46°30' W 001°47'0 0.0
2018-Feb-23 00:01N 46°30' W 001°47'0 0.0
2018-Feb-22 23:31N 46°30' W 001°47'0 0.0
2018-Feb-22 23:00N 46°30' W 001°47'0 0.0
2018-Feb-22 22:30N 46°30' W 001°47'0 0.0
2018-Feb-22 22:00N 46°30' W 001°47'0 0.0
2018-Feb-22 21:31N 46°30' W 001°47'0 0.0
2018-Feb-22 21:00N 46°30' W 001°47'0 0.0
2018-Feb-22 20:30N 46°30' W 001°47'0 0.2
2018-Feb-22 20:00N 46°30' W 001°47'0 0.4
2018-Feb-22 19:28N 46°30' W 001°47'0 0.0
2018-Feb-22 19:00N 46°30' W 001°47'3 6.4
2018-Feb-22 18:30N 46°27' W 001°51'5 9.3
2018-Feb-22 18:01N 46°26' W 001°57'5 9.1
2018-Feb-22 17:30N 46°24' W 002°03'12 2.1
2018-Feb-22 11:55N 46°16' W 002°16'5 0.5
2018-Feb-22 03:08N 46°21' W 002°14'1 3.4
2018-Feb-22 02:56N 46°21' W 002°14'3 0.1
2018-Feb-21 05:50N 46°19' W 002°16'2 4.0
2018-Feb-21 05:20N 46°21' W 002°14'4 3.4
2018-Feb-21 04:01N 46°23' W 002°09'0 3.5
2018-Feb-21 03:58N 46°23' W 002°09'2 3.5
2018-Feb-21 03:30N 46°24' W 002°07'1 2.1
2018-Feb-21 03:00N 46°24' W 002°05'4 3.1
2018-Feb-21 01:49N 46°23' W 002°11'2 3.4
2018-Feb-21 01:15N 46°25' W 002°12'1 3.2
2018-Feb-21 00:53N 46°26' W 002°11'1 3.3
2018-Feb-21 00:30N 46°26' W 002°09'2 3.3
2018-Feb-20 23:59N 46°26' W 002°06'2 3.4
2018-Feb-20 23:30N 46°26' W 002°04'2 4.6
2018-Feb-20 23:00N 46°26' W 002°01'5 9.4
2018-Feb-20 22:30N 46°27' W 001°54'5 9.1
2018-Feb-20 22:00N 46°28' W 001°48'1 3.0
2018-Feb-20 21:30N 46°30' W 001°47'0 0.0
2018-Feb-20 21:00N 46°30' W 001°47'0 0.4
2018-Feb-20 20:30N 46°30' W 001°47'1 2.0
2018-Feb-20 20:00N 46°29' W 001°47'3 6.6
2018-Feb-20 19:30N 46°29' W 001°52'5 9.0
2018-Feb-20 19:00N 46°31' W 001°58'5 9.1
2018-Feb-20 18:30N 46°32' W 002°04'5 9.2
2018-Feb-20 17:58N 46°34' W 002°10'  
2018-Feb-18 05:56N 46°20' W 002°14'4 8.3
2018-Feb-18 05:30N 46°21' W 002°09'4 8.3
2018-Feb-18 05:00N 46°23' W 002°04'4 8.4
2018-Feb-18 04:30N 46°25' W 001°58'4 8.2
2018-Feb-18 04:00N 46°27' W 001°53'4 8.2
2018-Feb-18 03:30N 46°28' W 001°47'2 3.2
2018-Feb-18 03:00N 46°30' W 001°47'0 0.0
2018-Feb-18 02:30N 46°30' W 001°47'0 0.0
2018-Feb-18 02:00N 46°30' W 001°47'0 0.0
2018-Feb-18 01:30N 46°30' W 001°47'3 5.3
2018-Feb-18 01:00N 46°28' W 001°50'4 8.8
2018-Feb-18 00:30N 46°27' W 001°56'3 6.8
2018-Feb-18 00:00N 46°26' W 002°01'4 8.4
2018-Feb-17 23:30N 46°24' W 002°06'3 3.0
2018-Feb-17 22:27N 46°23' W 002°11'3 3.1
2018-Feb-17 21:26N 46°20' W 002°12'1 0.0
2018-Feb-16 05:40N 46°20' W 002°13'1 9.1
2018-Feb-16 05:30N 46°21' W 002°11'4 8.9
2018-Feb-16 05:00N 46°22' W 002°06'4 8.8
2018-Feb-16 04:30N 46°24' W 001°60'4 8.6
2018-Feb-16 04:00N 46°26' W 001°54'4 8.6
2018-Feb-16 03:30N 46°28' W 001°49'2 3.8
2018-Feb-16 03:00N 46°30' W 001°47'0 0.0
2018-Feb-16 02:30N 46°30' W 001°47'0 0.0
2018-Feb-16 02:00N 46°30' W 001°47'0 0.4
2018-Feb-16 01:30N 46°30' W 001°47'0 0.0
2018-Feb-16 01:00N 46°30' W 001°47'3 5.6
2018-Feb-16 00:30N 46°28' W 001°50'5 9.0
2018-Feb-16 00:00N 46°27' W 001°56'5 9.0
2018-Feb-15 23:30N 46°25' W 002°03'3 5.4
2018-Feb-15 23:00N 46°25' W 002°06'2 3.4
2018-Feb-15 22:30N 46°24' W 002°08'2 3.1
2018-Feb-15 22:00N 46°23' W 002°11'2 3.4
2018-Feb-15 21:30N 46°22' W 002°11'4 3.3
2018-Feb-15 20:20N 46°18' W 002°14'3 0.2
2018-Feb-15 06:16N 46°21' W 002°11'2 8.1
2018-Feb-15 06:00N 46°21' W 002°09'4 8.1
2018-Feb-15 05:30N 46°23' W 002°03'4 8.2
2018-Feb-15 05:00N 46°25' W 001°58'4 8.1
2018-Feb-15 04:30N 46°27' W 001°53'4 7.6
2018-Feb-15 04:00N 46°28' W 001°48'2 3.4
2018-Feb-15 03:30N 46°30' W 001°47'0 0.0
2018-Feb-15 03:00N 46°30' W 001°47'0 0.0
2018-Feb-15 02:30N 46°30' W 001°47'0 0.0
2018-Feb-15 02:00N 46°30' W 001°47'0 0.0
2018-Feb-15 01:30N 46°30' W 001°47'0 0.0
2018-Feb-15 01:00N 46°30' W 001°47'0 0.0
2018-Feb-15 00:30N 46°30' W 001°47'0 0.0
2018-Feb-15 00:00N 46°30' W 001°47'0 0.0
2018-Feb-14 23:30N 46°30' W 001°47'0 0.0
2018-Feb-14 23:00N 46°30' W 001°47'0 0.0
2018-Feb-14 22:30N 46°30' W 001°47'0 0.0
2018-Feb-14 22:00N 46°30' W 001°47'0 0.0
2018-Feb-14 21:30N 46°30' W 001°47'0 0.0
2018-Feb-14 21:00N 46°30' W 001°47'0 0.0
2018-Feb-14 20:30N 46°30' W 001°47'0 0.0
2018-Feb-14 20:00N 46°30' W 001°47'0 0.0
2018-Feb-14 19:30N 46°30' W 001°47'0 0.0
2018-Feb-14 19:00N 46°30' W 001°47'0 0.0
2018-Feb-14 18:30N 46°30' W 001°47'0 0.0
2018-Feb-14 18:00N 46°30' W 001°47'0 0.0
2018-Feb-14 17:30N 46°30' W 001°47'0 0.0
2018-Feb-14 17:00N 46°30' W 001°47'0 0.0
2018-Feb-14 16:30N 46°30' W 001°47'0 0.0
2018-Feb-14 16:00N 46°30' W 001°47'0 0.0
2018-Feb-14 15:30N 46°30' W 001°47'0 0.0
2018-Feb-14 15:00N 46°30' W 001°47'0 0.0
2018-Feb-14 14:30N 46°30' W 001°47'0 0.0
2018-Feb-14 14:00N 46°30' W 001°47'0 0.0
2018-Feb-14 13:30N 46°30' W 001°47'0 0.0
2018-Feb-14 13:00N 46°30' W 001°47'0 0.0
2018-Feb-14 12:30N 46°30' W 001°47'0 0.0
2018-Feb-14 12:00N 46°30' W 001°47'0 0.0
2018-Feb-14 11:30N 46°30' W 001°47'0 0.0
2018-Feb-14 11:00N 46°30' W 001°47'0 0.0
2018-Feb-14 10:30N 46°30' W 001°47'0 0.0
2018-Feb-14 10:00N 46°30' W 001°47'0 0.0
2018-Feb-14 09:30N 46°30' W 001°47'0 0.0
2018-Feb-14 09:00N 46°30' W 001°47'0 0.0
2018-Feb-14 08:30N 46°30' W 001°47'0 0.0
2018-Feb-14 08:00N 46°30' W 001°47'0 0.0
2018-Feb-14 07:30N 46°30' W 001°47'0 0.0
2018-Feb-14 07:00N 46°30' W 001°47'0 0.0
2018-Feb-14 06:30N 46°30' W 001°47'0 0.0
2018-Feb-14 06:00N 46°30' W 001°47'0 0.0
2018-Feb-14 05:30N 46°30' W 001°47'0 0.0
2018-Feb-14 05:00N 46°30' W 001°47'0 0.0
2018-Feb-14 04:30N 46°30' W 001°47'0 0.0
2018-Feb-14 04:00N 46°30' W 001°47'0 0.0
2018-Feb-14 03:30N 46°30' W 001°47'0 0.0
2018-Feb-14 03:00N 46°30' W 001°47'0 0.0
2018-Feb-14 02:30N 46°30' W 001°47'0 0.0
2018-Feb-14 02:00N 46°30' W 001°47'0 0.0
2018-Feb-14 01:30N 46°30' W 001°47'0 0.0
2018-Feb-14 01:00N 46°30' W 001°47'0 0.0
2018-Feb-14 00:30N 46°30' W 001°47'0 0.0
2018-Feb-14 00:00N 46°30' W 001°47'0 0.0
2018-Feb-13 23:30N 46°30' W 001°47'0 0.0
2018-Feb-13 23:00N 46°30' W 001°47'  
Track history (hours):
 
Tides and Currents Weather Stations Pressure Air Temp Water Temp Dewpoint Dewpoint Depression Visibility Wind Speed Wind Dir Waves Ship Positions

F/v_l'omerta

Last reported at 2018-Feb-23 22:59 UTC. Time now 2018-Feb-24 00:51 UTC.
Position N 46°30' W 001°47'.

Length 18 m.

Type: Fishing. MMSI: 227903000.

Date/timePositionNaut miles runAvg speedWind from/ knotsBaromVisibWave heightAir tempDewpointWater temp
2018-Feb-23 22:59N 46°30' W 001°47'0 0.0
2018-Feb-23 22:30N 46°30' W 001°47'0 0.0
2018-Feb-23 22:00N 46°30' W 001°47'0 0.0
2018-Feb-23 21:31N 46°30' W 001°47'0 0.0
2018-Feb-23 21:01N 46°30' W 001°47'0 0.0
2018-Feb-23 20:30N 46°30' W 001°47'0 0.0
2018-Feb-23 20:00N 46°30' W 001°47'0 0.0
2018-Feb-23 19:29N 46°30' W 001°47'0 0.0
2018-Feb-23 19:00N 46°30' W 001°47'0 0.0
2018-Feb-23 18:30N 46°30' W 001°47'0 0.0
2018-Feb-23 18:01N 46°30' W 001°47'0 0.0
2018-Feb-23 17:30N 46°30' W 001°47'0 0.0
2018-Feb-23 17:00N 46°30' W 001°47'0 0.0
2018-Feb-23 16:29N 46°30' W 001°47'0 0.0
2018-Feb-23 16:00N 46°30' W 001°47'0 0.0
2018-Feb-23 15:30N 46°30' W 001°47'0 0.0
2018-Feb-23 15:00N 46°30' W 001°47'0 0.0
2018-Feb-23 14:30N 46°30' W 001°47'0 0.0
2018-Feb-23 14:00N 46°30' W 001°47'0 0.0
2018-Feb-23 13:30N 46°30' W 001°47'0 0.0
2018-Feb-23 13:00N 46°30' W 001°47'0 0.0
2018-Feb-23 12:30N 46°30' W 001°47'0 0.0
2018-Feb-23 12:00N 46°30' W 001°47'0 0.0
2018-Feb-23 11:30N 46°30' W 001°47'0 0.0
2018-Feb-23 11:00N 46°30' W 001°47'0 0.0
2018-Feb-23 10:30N 46°30' W 001°47'0 0.0
2018-Feb-23 10:00N 46°30' W 001°47'0 0.0
2018-Feb-23 09:30N 46°30' W 001°47'0 0.0
2018-Feb-23 09:00N 46°30' W 001°47'0 0.0
2018-Feb-23 08:30N 46°30' W 001°47'0 0.0
2018-Feb-23 08:00N 46°30' W 001°47'0 0.0
2018-Feb-23 07:30N 46°30' W 001°47'0 0.0
2018-Feb-23 07:00N 46°30' W 001°47'0 0.0
2018-Feb-23 06:30N 46°30' W 001°47'0 0.0
2018-Feb-23 06:00N 46°30' W 001°47'0 0.0
2018-Feb-23 05:30N 46°30' W 001°47'0 0.0
2018-Feb-23 05:00N 46°30' W 001°47'0 0.0
2018-Feb-23 04:30N 46°30' W 001°47'0 0.0
2018-Feb-23 04:00N 46°30' W 001°47'0 0.0
2018-Feb-23 03:30N 46°30' W 001°47'0 0.0
2018-Feb-23 03:00N 46°30' W 001°47'0 0.0
2018-Feb-23 02:30N 46°30' W 001°47'0 0.0
2018-Feb-23 02:00N 46°30' W 001°47'0 0.0
2018-Feb-23 01:30N 46°30' W 001°47'0 0.0
2018-Feb-23 01:00N 46°30' W 001°47'0 0.0
2018-Feb-23 00:29N 46°30' W 001°47'0 0.0
2018-Feb-23 00:01N 46°30' W 001°47'0 0.0
2018-Feb-22 23:31N 46°30' W 001°47'0 0.0
2018-Feb-22 23:00N 46°30' W 001°47'0 0.0
2018-Feb-22 22:30N 46°30' W 001°47'0 0.0
2018-Feb-22 22:00N 46°30' W 001°47'0 0.0
2018-Feb-22 21:31N 46°30' W 001°47'0 0.0
2018-Feb-22 21:00N 46°30' W 001°47'0 0.0
2018-Feb-22 20:30N 46°30' W 001°47'0 0.2
2018-Feb-22 20:00N 46°30' W 001°47'0 0.4
2018-Feb-22 19:28N 46°30' W 001°47'0 0.0
2018-Feb-22 19:00N 46°30' W 001°47'3 6.4
2018-Feb-22 18:30N 46°27' W 001°51'5 9.3
2018-Feb-22 18:01N 46°26' W 001°57'5 9.1
2018-Feb-22 17:30N 46°24' W 002°03'12 2.1
2018-Feb-22 11:55N 46°16' W 002°16'5 0.5
2018-Feb-22 03:08N 46°21' W 002°14'1 3.4
2018-Feb-22 02:56N 46°21' W 002°14'3 0.1
2018-Feb-21 05:50N 46°19' W 002°16'2 4.0
2018-Feb-21 05:20N 46°21' W 002°14'4 3.4
2018-Feb-21 04:01N 46°23' W 002°09'0 3.5
2018-Feb-21 03:58N 46°23' W 002°09'2 3.5
2018-Feb-21 03:30N 46°24' W 002°07'1 2.1
2018-Feb-21 03:00N 46°24' W 002°05'4 3.1
2018-Feb-21 01:49N 46°23' W 002°11'2 3.4
2018-Feb-21 01:15N 46°25' W 002°12'1 3.2
2018-Feb-21 00:53N 46°26' W 002°11'1 3.3
2018-Feb-21 00:30N 46°26' W 002°09'2 3.3
2018-Feb-20 23:59N 46°26' W 002°06'2 3.4
2018-Feb-20 23:30N 46°26' W 002°04'2 4.6
2018-Feb-20 23:00N 46°26' W 002°01'5 9.4
2018-Feb-20 22:30N 46°27' W 001°54'5 9.1
2018-Feb-20 22:00N 46°28' W 001°48'1 3.0
2018-Feb-20 21:30N 46°30' W 001°47'0 0.0
2018-Feb-20 21:00N 46°30' W 001°47'0 0.4
2018-Feb-20 20:30N 46°30' W 001°47'1 2.0
2018-Feb-20 20:00N 46°29' W 001°47'3 6.6
2018-Feb-20 19:30N 46°29' W 001°52'5 9.0
2018-Feb-20 19:00N 46°31' W 001°58'5 9.1
2018-Feb-20 18:30N 46°32' W 002°04'5 9.2
2018-Feb-20 17:58N 46°34' W 002°10'  
2018-Feb-18 05:56N 46°20' W 002°14'4 8.3
2018-Feb-18 05:30N 46°21' W 002°09'4 8.3
2018-Feb-18 05:00N 46°23' W 002°04'4 8.4
2018-Feb-18 04:30N 46°25' W 001°58'4 8.2
2018-Feb-18 04:00N 46°27' W 001°53'4 8.2
2018-Feb-18 03:30N 46°28' W 001°47'2 3.2
2018-Feb-18 03:00N 46°30' W 001°47'0 0.0
2018-Feb-18 02:30N 46°30' W 001°47'0 0.0
2018-Feb-18 02:00N 46°30' W 001°47'0 0.0
2018-Feb-18 01:30N 46°30' W 001°47'3 5.3
2018-Feb-18 01:00N 46°28' W 001°50'4 8.8
2018-Feb-18 00:30N 46°27' W 001°56'3 6.8
2018-Feb-18 00:00N 46°26' W 002°01'4 8.4
2018-Feb-17 23:30N 46°24' W 002°06'3 3.0
2018-Feb-17 22:27N 46°23' W 002°11'3 3.1
2018-Feb-17 21:26N 46°20' W 002°12'1 0.0
2018-Feb-16 05:40N 46°20' W 002°13'1 9.1
2018-Feb-16 05:30N 46°21' W 002°11'4 8.9
2018-Feb-16 05:00N 46°22' W 002°06'4 8.8
2018-Feb-16 04:30N 46°24' W 001°60'4 8.6
2018-Feb-16 04:00N 46°26' W 001°54'4 8.6
2018-Feb-16 03:30N 46°28' W 001°49'2 3.8
2018-Feb-16 03:00N 46°30' W 001°47'0 0.0
2018-Feb-16 02:30N 46°30' W 001°47'0 0.0
2018-Feb-16 02:00N 46°30' W 001°47'0 0.4
2018-Feb-16 01:30N 46°30' W 001°47'0 0.0
2018-Feb-16 01:00N 46°30' W 001°47'3 5.6
2018-Feb-16 00:30N 46°28' W 001°50'5 9.0
2018-Feb-16 00:00N 46°27' W 001°56'5 9.0
2018-Feb-15 23:30N 46°25' W 002°03'3 5.4
2018-Feb-15 23:00N 46°25' W 002°06'2 3.4
2018-Feb-15 22:30N 46°24' W 002°08'2 3.1
2018-Feb-15 22:00N 46°23' W 002°11'2 3.4
2018-Feb-15 21:30N 46°22' W 002°11'4 3.3
2018-Feb-15 20:20N 46°18' W 002°14'3 0.2
2018-Feb-15 06:16N 46°21' W 002°11'2 8.1
2018-Feb-15 06:00N 46°21' W 002°09'4 8.1
2018-Feb-15 05:30N 46°23' W 002°03'4 8.2
2018-Feb-15 05:00N 46°25' W 001°58'4 8.1
2018-Feb-15 04:30N 46°27' W 001°53'4 7.6
2018-Feb-15 04:00N 46°28' W 001°48'2 3.4
2018-Feb-15 03:30N 46°30' W 001°47'0 0.0
2018-Feb-15 03:00N 46°30' W 001°47'0 0.0
2018-Feb-15 02:30N 46°30' W 001°47'0 0.0
2018-Feb-15 02:00N 46°30' W 001°47'0 0.0
2018-Feb-15 01:30N 46°30' W 001°47'0 0.0
2018-Feb-15 01:00N 46°30' W 001°47'0 0.0
2018-Feb-15 00:30N 46°30' W 001°47'0 0.0
2018-Feb-15 00:00N 46°30' W 001°47'0 0.0
2018-Feb-14 23:30N 46°30' W 001°47'0 0.0
2018-Feb-14 23:00N 46°30' W 001°47'0 0.0
2018-Feb-14 22:30N 46°30' W 001°47'0 0.0
2018-Feb-14 22:00N 46°30' W 001°47'0 0.0
2018-Feb-14 21:30N 46°30' W 001°47'0 0.0
2018-Feb-14 21:00N 46°30' W 001°47'0 0.0
2018-Feb-14 20:30N 46°30' W 001°47'0 0.0
2018-Feb-14 20:00N 46°30' W 001°47'0 0.0
2018-Feb-14 19:30N 46°30' W 001°47'0 0.0
2018-Feb-14 19:00N 46°30' W 001°47'0 0.0
2018-Feb-14 18:30N 46°30' W 001°47'0 0.0
2018-Feb-14 18:00N 46°30' W 001°47'0 0.0
2018-Feb-14 17:30N 46°30' W 001°47'0 0.0
2018-Feb-14 17:00N 46°30' W 001°47'0 0.0
2018-Feb-14 16:30N 46°30' W 001°47'0 0.0
2018-Feb-14 16:00N 46°30' W 001°47'0 0.0
2018-Feb-14 15:30N 46°30' W 001°47'0 0.0
2018-Feb-14 15:00N 46°30' W 001°47'0 0.0
2018-Feb-14 14:30N 46°30' W 001°47'0 0.0
2018-Feb-14 14:00N 46°30' W 001°47'0 0.0
2018-Feb-14 13:30N 46°30' W 001°47'0 0.0
2018-Feb-14 13:00N 46°30' W 001°47'0 0.0
2018-Feb-14 12:30N 46°30' W 001°47'0 0.0
2018-Feb-14 12:00N 46°30' W 001°47'0 0.0
2018-Feb-14 11:30N 46°30' W 001°47'0 0.0
2018-Feb-14 11:00N 46°30' W 001°47'0 0.0
2018-Feb-14 10:30N 46°30' W 001°47'0 0.0
2018-Feb-14 10:00N 46°30' W 001°47'0 0.0
2018-Feb-14 09:30N 46°30' W 001°47'0 0.0
2018-Feb-14 09:00N 46°30' W 001°47'0 0.0
2018-Feb-14 08:30N 46°30' W 001°47'0 0.0
2018-Feb-14 08:00N 46°30' W 001°47'0 0.0
2018-Feb-14 07:30N 46°30' W 001°47'0 0.0
2018-Feb-14 07:00N 46°30' W 001°47'0 0.0
2018-Feb-14 06:30N 46°30' W 001°47'0 0.0
2018-Feb-14 06:00N 46°30' W 001°47'0 0.0
2018-Feb-14 05:30N 46°30' W 001°47'0 0.0
2018-Feb-14 05:00N 46°30' W 001°47'0 0.0
2018-Feb-14 04:30N 46°30' W 001°47'0 0.0
2018-Feb-14 04:00N 46°30' W 001°47'0 0.0
2018-Feb-14 03:30N 46°30' W 001°47'0 0.0
2018-Feb-14 03:00N 46°30' W 001°47'0 0.0
2018-Feb-14 02:30N 46°30' W 001°47'0 0.0
2018-Feb-14 02:00N 46°30' W 001°47'0 0.0
2018-Feb-14 01:30N 46°30' W 001°47'0 0.0
2018-Feb-14 01:00N 46°30' W 001°47'0 0.0
2018-Feb-14 00:30N 46°30' W 001°47'0 0.0
2018-Feb-14 00:00N 46°30' W 001°47'0 0.0
2018-Feb-13 23:30N 46°30' W 001°47'0 0.0
2018-Feb-13 23:00N 46°30' W 001°47'  

Dump ship's entire track history